Time;durP1;ratioP1;P1;durP2;ratioP2;P2;SDS_P1;SDS_P2;PMS_P1;PMS_P2;Temp;Humidity;BMP_temperature;BMP_pressure;BME280_temperature;BME280_humidity;BME280_pressure;Samples;Min_cycle;Max_cycle;Signal;HPM_P1;HPM_P2
2022/10/11 00:00:14;;;;;;;15.80;3.15;;;8.10;99.90;;;;;;5018999;28;20045;-76
2022/10/11 00:02:39;;;;;;;15.38;2.70;;;8.00;99.90;;;;;;5018167;28;20424;-74
2022/10/11 00:05:07;;;;;;;12.68;1.75;;;7.90;99.90;;;;;;5025519;28;20115;-77
2022/10/11 00:07:32;;;;;;;12.60;2.58;;;8.10;99.90;;;;;;5031408;28;20488;-77
2022/10/11 00:09:58;;;;;;;22.27;4.68;;;7.90;99.90;;;;;;5020041;28;20057;-76
2022/10/11 00:12:23;;;;;;;15.85;2.30;;;7.90;99.90;;;;;;5028714;28;20046;-75
2022/10/11 00:14:49;;;;;;;9.63;1.95;;;8.00;99.90;;;;;;5030005;28;20041;-76
2022/10/11 00:17:15;;;;;;;20.17;4.63;;;8.10;99.90;;;;;;5028963;28;20447;-76
2022/10/11 00:19:41;;;;;;;12.20;3.08;;;7.90;99.90;;;;;;5029389;28;20044;-75
2022/10/11 00:22:06;;;;;;;10.25;2.08;;;7.80;99.90;;;;;;5023062;28;20042;-76
2022/10/11 00:24:32;;;;;;;12.73;2.72;;;7.70;99.90;;;;;;5014555;28;20037;-76
2022/10/11 00:26:57;;;;;;;8.65;2.60;;;7.70;99.90;;;;;;5027930;28;20042;-76
2022/10/11 00:29:23;;;;;;;12.40;2.72;;;7.90;99.90;;;;;;5028753;28;20451;-75
2022/10/11 00:31:49;;;;;;;12.88;2.13;;;7.70;99.90;;;;;;5029045;28;20164;-76
2022/10/11 00:34:16;;;;;;;9.75;2.08;;;8.00;99.90;;;;;;5026537;28;20514;-76
2022/10/11 00:36:43;;;;;;;8.52;1.75;;;7.90;99.90;;;;;;5030202;28;20053;-76
2022/10/11 00:39:09;;;;;;;14.82;3.05;;;8.00;99.90;;;;;;5029338;28;20046;-75
2022/10/11 00:41:35;;;;;;;14.77;4.53;;;7.70;99.90;;;;;;5029040;28;20108;-75
2022/10/11 00:44:12;;;;;;;19.92;3.17;;;7.70;99.90;;;;;;5022665;28;20061;-75
2022/10/11 00:46:41;;;;;;;14.20;3.17;;;7.70;99.90;;;;;;5011181;28;20077;-76
2022/10/11 00:49:42;;;;;;;8.70;1.50;;;7.80;99.90;;;;;;5017939;28;20095;-75
2022/10/11 00:52:14;;;;;;;18.20;4.22;;;7.50;99.90;;;;;;5025824;28;20045;-75
2022/10/11 00:54:44;;;;;;;10.50;2.83;;;7.40;99.90;;;;;;5011806;28;20041;-74
2022/10/11 00:57:16;;;;;;;9.13;2.40;;;7.60;99.90;;;;;;5031224;28;20368;-76
2022/10/11 00:59:48;;;;;;;10.32;1.88;;;7.60;99.90;;;;;;5024818;28;20044;-75
2022/10/11 01:02:15;;;;;;;48.63;4.55;;;7.60;99.90;;;;;;5021464;28;20064;-76
2022/10/11 01:04:41;;;;;;;12.18;2.30;;;7.60;99.90;;;;;;5010426;28;20125;-75
2022/10/11 01:07:08;;;;;;;9.30;2.08;;;7.70;99.90;;;;;;5020073;28;20117;-76
2022/10/11 01:09:34;;;;;;;7.55;2.40;;;7.70;99.90;;;;;;5009282;28;20050;-75
2022/10/11 01:12:02;;;;;;;7.65;2.08;;;7.60;99.90;;;;;;5010431;28;20053;-74
2022/10/11 01:14:53;;;;;;;9.90;2.55;;;7.40;99.90;;;;;;5011192;28;20042;-75
2022/10/11 01:17:43;;;;;;;11.70;2.63;;;7.40;99.90;;;;;;5009299;28;20136;-75
2022/10/11 01:20:14;;;;;;;;;;;7.20;99.90;;;;;;5028955;28;20045;-74
2022/10/11 01:23:16;;;;;;;14.10;2.85;;;7.10;99.90;;;;;;5026143;28;20359;-74
2022/10/11 01:26:26;;;;;;;27.38;5.70;;;7.30;99.90;;;;;;4916751;29;20055;-75
2022/10/11 01:29:05;;;;;;;10.00;1.95;;;7.40;99.90;;;;;;5023190;28;20056;-74
2022/10/11 01:31:40;;;;;;;10.55;2.67;;;7.40;99.90;;;;;;5025451;28;21076;-75
2022/10/11 01:34:34;;;;;;;11.35;2.60;;;7.40;99.90;;;;;;5009135;28;20116;-74
2022/10/11 01:37:23;;;;;;;16.88;3.08;;;7.40;99.90;;;;;;5011443;28;20439;-74
2022/10/11 01:40:13;;;;;;;14.90;2.22;;;7.20;99.90;;;;;;5022722;28;20132;-74
2022/10/11 01:42:41;;;;;;;11.93;2.53;;;7.10;99.90;;;;;;5017258;28;20428;-74
2022/10/11 01:45:09;;;;;;;13.30;2.38;;;7.00;99.90;;;;;;5007942;28;20049;-74
2022/10/11 01:47:37;;;;;;;9.43;2.38;;;6.90;99.90;;;;;;5015607;28;20045;-75
2022/10/11 01:50:06;;;;;;;10.65;2.17;;;7.10;99.90;;;;;;5029328;28;20125;-75
2022/10/11 01:52:38;;;;;;;10.85;1.80;;;7.10;99.90;;;;;;5028824;28;20427;-74
2022/10/11 01:55:24;;;;;;;12.55;2.92;;;7.30;99.90;;;;;;5015809;28;20460;-75
2022/10/11 01:57:56;;;;;;;20.38;3.55;;;7.00;99.90;;;;;;5029029;28;20517;-75
2022/10/11 02:00:24;;;;;;;9.40;2.42;;;7.00;99.90;;;;;;5026632;28;20409;-74
2022/10/11 02:02:56;;;;;;;13.57;2.63;;;7.20;99.90;;;;;;5023550;28;20130;-75
2022/10/11 02:05:24;;;;;;;15.63;3.60;;;7.30;99.90;;;;;;5011941;28;20392;-75
2022/10/11 02:08:24;;;;;;;6.85;1.98;;;7.00;99.90;;;;;;5028796;28;20041;-75
2022/10/11 02:11:03;;;;;;;26.05;4.65;;;7.30;99.90;;;;;;5010124;28;20406;-75
2022/10/11 02:13:35;;;;;;;12.57;3.63;;;6.90;99.90;;;;;;5026974;28;20037;-75
2022/10/11 02:16:05;;;;;;;14.68;2.00;;;7.20;99.90;;;;;;5028620;28;20052;-76
2022/10/11 02:18:35;;;;;;;10.90;2.53;;;6.90;99.90;;;;;;5018241;28;20050;-74
2022/10/11 02:21:05;;;;;;;13.70;1.73;;;7.00;99.90;;;;;;5030853;28;20217;-74
2022/10/11 02:23:36;;;;;;;21.17;3.47;;;6.70;99.90;;;;;;5023149;28;20467;-75
2022/10/11 02:26:05;;;;;;;16.90;3.55;;;6.80;99.90;;;;;;5028477;28;20053;-75
2022/10/11 02:28:35;;;;;;;12.43;3.00;;;7.00;99.90;;;;;;5029963;28;20088;-73
2022/10/11 02:31:05;;;;;;;9.70;2.33;;;6.80;99.90;;;;;;5039442;28;20465;-75
2022/10/11 02:33:37;;;;;;;7.40;1.73;;;6.60;99.90;;;;;;5039170;28;20040;-75
2022/10/11 02:36:10;;;;;;;7.07;1.35;;;6.60;99.90;;;;;;5036157;28;20041;-75
2022/10/11 02:38:44;;;;;;;12.85;2.55;;;6.90;99.90;;;;;;5031071;28;20046;-73
2022/10/11 02:41:20;;;;;;;13.10;3.80;;;6.70;99.90;;;;;;5010311;28;20290;-75
2022/10/11 02:43:53;;;;;;;11.43;2.55;;;6.60;99.90;;;;;;5043557;28;20053;-76
2022/10/11 02:46:19;;;;;;;15.40;2.90;;;6.70;99.90;;;;;;5042971;28;20069;-75
2022/10/11 02:48:46;;;;;;;8.88;3.05;;;7.00;99.90;;;;;;5036665;28;20073;-75
2022/10/11 02:51:13;;;;;;;12.25;2.13;;;6.70;99.90;;;;;;5042510;28;20037;-76
2022/10/11 02:53:39;;;;;;;6.82;1.45;;;7.00;99.90;;;;;;5037816;28;20053;-74
2022/10/11 02:56:04;;;;;;;20.10;2.42;;;6.70;99.90;;;;;;5032546;28;20045;-74
2022/10/11 02:58:30;;;;;;;12.48;1.70;;;6.60;99.90;;;;;;5017507;28;20046;-74
2022/10/11 03:00:56;;;;;;;38.05;4.40;;;6.60;99.90;;;;;;5013952;28;20396;-75
2022/10/11 03:03:21;;;;;;;12.65;2.85;;;6.60;99.90;;;;;;5013107;28;20041;-75
2022/10/11 03:05:47;;;;;;;10.40;2.35;;;7.00;99.90;;;;;;5012651;28;20053;-74
2022/10/11 03:08:15;;;;;;;11.05;2.38;;;6.90;99.90;;;;;;5014970;28;20053;-75
2022/10/11 03:10:41;;;;;;;12.32;2.28;;;6.90;99.90;;;;;;5012901;28;20046;-75
2022/10/11 03:13:07;;;;;;;15.60;2.65;;;6.50;99.90;;;;;;5028620;28;20045;-74
2022/10/11 03:15:33;;;;;;;17.52;2.95;;;6.60;99.90;;;;;;5031679;28;20045;-74
2022/10/11 03:17:59;;;;;;;10.63;1.48;;;6.50;99.90;;;;;;5029621;28;20107;-74
2022/10/11 03:20:24;;;;;;;18.95;2.60;;;6.50;99.90;;;;;;5032190;28;20084;-74
2022/10/11 03:22:50;;;;;;;13.95;1.40;;;6.70;99.90;;;;;;5028793;28;20029;-75
2022/10/11 03:25:16;;;;;;;15.98;2.13;;;6.50;99.90;;;;;;5021379;28;20077;-74
2022/10/11 03:27:41;;;;;;;17.63;2.33;;;6.60;99.90;;;;;;5031836;28;20127;-75
2022/10/11 03:30:08;;;;;;;17.08;2.60;;;6.40;99.90;;;;;;5030691;28;20496;-74
2022/10/11 03:32:34;;;;;;;10.63;1.88;;;6.80;99.90;;;;;;5020136;28;20049;-75
2022/10/11 03:35:00;;;;;;;10.00;2.78;;;6.50;99.90;;;;;;4994530;28;20048;-74
2022/10/11 03:37:26;;;;;;;8.82;2.08;;;6.60;99.90;;;;;;5013817;28;20128;-74
2022/10/11 03:39:51;;;;;;;8.45;1.52;;;6.70;99.90;;;;;;5020167;28;20044;-74
2022/10/11 03:42:17;;;;;;;9.02;2.13;;;6.60;99.90;;;;;;5028919;28;20050;-74
2022/10/11 03:44:43;;;;;;;17.52;2.83;;;6.70;99.90;;;;;;5030219;28;21631;-75
2022/10/11 03:47:09;;;;;;;10.52;2.58;;;6.50;99.90;;;;;;5030114;28;20052;-74
2022/10/11 03:49:34;;;;;;;18.92;3.42;;;6.50;99.90;;;;;;5029941;28;20067;-74
2022/10/11 03:52:00;;;;;;;10.45;2.97;;;6.60;99.90;;;;;;5030595;28;20049;-75
2022/10/11 03:54:26;;;;;;;9.15;3.38;;;6.90;99.90;;;;;;5029762;28;20460;-74
2022/10/11 03:56:51;;;;;;;5.97;1.58;;;6.50;99.90;;;;;;5028533;28;20414;-74
2022/10/11 03:59:17;;;;;;;9.98;3.28;;;6.50;99.90;;;;;;5029357;28;20042;-74
2022/10/11 04:01:43;;;;;;;6.40;2.30;;;6.60;99.90;;;;;;5030138;28;20049;-75
2022/10/11 04:04:09;;;;;;;15.30;4.53;;;6.70;99.90;;;;;;5028147;28;20038;-75
2022/10/11 04:06:34;;;;;;;11.40;2.08;;;6.70;99.90;;;;;;5031328;28;20038;-74
2022/10/11 04:09:01;;;;;;;13.75;2.03;;;6.50;99.90;;;;;;5026275;28;20050;-74
2022/10/11 04:11:26;;;;;;;12.35;2.80;;;6.60;99.90;;;;;;5009007;28;20057;-74
2022/10/11 04:13:52;;;;;;;9.52;2.72;;;6.90;99.90;;;;;;5008908;28;20046;-76
2022/10/11 04:16:18;;;;;;;12.98;2.38;;;6.70;99.90;;;;;;5004321;28;20118;-77
2022/10/11 04:18:43;;;;;;;10.40;2.47;;;6.50;99.90;;;;;;5004325;28;20041;-75
2022/10/11 04:21:09;;;;;;;10.65;3.13;;;6.80;99.90;;;;;;5020366;28;20161;-75
2022/10/11 04:23:35;;;;;;;10.00;3.00;;;6.60;99.90;;;;;;4998436;28;20057;-74
2022/10/11 04:26:05;;;;;;;9.80;2.65;;;6.90;99.90;;;;;;5010086;28;20049;-75
2022/10/11 04:28:31;;;;;;;;;;;6.80;99.90;;;;;;5011113;28;20077;-75
2022/10/11 04:30:56;;;;;;;11.27;2.33;;;6.70;99.90;;;;;;4986123;28;19969;-75
2022/10/11 04:33:22;;;;;;;14.52;4.85;;;6.90;99.90;;;;;;5019245;28;20033;-75
2022/10/11 04:35:48;;;;;;;10.63;2.17;;;6.60;99.90;;;;;;5014361;28;20488;-74
2022/10/11 04:38:13;;;;;;;9.40;2.90;;;6.70;99.90;;;;;;5010595;28;20452;-75
2022/10/11 04:40:39;;;;;;;13.15;2.22;;;6.80;99.90;;;;;;5003660;28;20456;-74
2022/10/11 04:43:05;;;;;;;19.80;4.63;;;7.00;99.90;;;;;;5024572;28;20056;-74
2022/10/11 04:45:31;;;;;;;16.27;4.53;;;6.90;99.90;;;;;;4997528;28;20103;-75
2022/10/11 04:47:57;;;;;;;12.65;3.17;;;6.80;99.90;;;;;;5004176;28;20401;-75
2022/10/11 04:50:22;;;;;;;10.05;5.03;;;7.00;99.90;;;;;;5010929;28;20085;-75
2022/10/11 04:52:48;;;;;;;12.50;4.95;;;6.80;99.90;;;;;;5008167;28;20057;-75
2022/10/11 04:55:13;;;;;;;21.23;5.32;;;6.90;99.90;;;;;;5007611;28;20044;-76
2022/10/11 04:57:39;;;;;;;37.78;5.70;;;6.90;99.90;;;;;;5010878;28;20057;-75
2022/10/11 05:00:05;;;;;;;10.52;4.38;;;7.20;99.90;;;;;;4991971;28;20041;-75
2022/10/11 05:02:31;;;;;;;17.23;6.85;;;7.20;99.90;;;;;;4993182;28;20140;-74
2022/10/11 05:04:57;;;;;;;18.40;5.65;;;7.00;99.90;;;;;;5009791;28;20042;-75
2022/10/11 05:07:23;;;;;;;13.85;3.35;;;6.90;99.90;;;;;;5009298;28;20041;-74
2022/10/11 05:09:48;;;;;;;15.85;3.22;;;7.10;99.90;;;;;;5020348;28;20092;-75
2022/10/11 05:12:14;;;;;;;11.02;2.88;;;7.20;99.90;;;;;;5029076;28;20049;-75
2022/10/11 05:14:39;;;;;;;9.93;2.92;;;6.90;99.90;;;;;;5027516;28;20052;-74
2022/10/11 05:17:05;;;;;;;13.68;3.92;;;7.20;99.90;;;;;;5028932;28;20085;-75
2022/10/11 05:19:31;;;;;;;14.55;3.58;;;6.90;99.90;;;;;;5029722;28;20455;-74
2022/10/11 05:21:56;;;;;;;18.95;5.00;;;7.20;99.90;;;;;;5029601;28;20045;-74
2022/10/11 05:24:22;;;;;;;15.70;5.75;;;6.80;99.90;;;;;;5028526;28;20049;-75
2022/10/11 05:26:48;;;;;;;26.13;6.85;;;7.00;99.90;;;;;;5028175;28;20064;-74
2022/10/11 05:29:14;;;;;;;14.60;6.03;;;7.20;99.90;;;;;;5028693;28;20038;-75
2022/10/11 05:31:40;;;;;;;18.50;6.47;;;7.20;99.90;;;;;;5028193;28;20081;-75
2022/10/11 05:34:06;;;;;;;16.70;4.57;;;7.10;99.90;;;;;;5028440;28;20038;-74
2022/10/11 05:36:32;;;;;;;12.20;2.88;;;6.70;99.90;;;;;;5021568;28;20117;-74
2022/10/11 05:38:57;;;;;;;12.90;2.97;;;6.90;99.90;;;;;;5018301;28;20033;-74
2022/10/11 05:41:23;;;;;;;6.95;2.42;;;6.70;99.90;;;;;;5026203;28;20052;-75
2022/10/11 05:43:48;;;;;;;16.17;3.40;;;6.80;99.90;;;;;;5029787;28;20124;-75
2022/10/11 05:46:14;;;;;;;14.18;3.63;;;6.80;99.90;;;;;;5027049;28;20045;-75
2022/10/11 05:48:40;;;;;;;12.95;3.33;;;6.80;99.90;;;;;;5028138;28;20041;-74
2022/10/11 05:51:08;;;;;;;13.35;3.45;;;7.00;99.90;;;;;;5026941;28;20053;-74
2022/10/11 05:53:34;;;;;;;8.18;2.72;;;6.70;99.90;;;;;;5022496;28;20129;-74
2022/10/11 05:56:00;;;;;;;15.80;3.00;;;6.60;99.90;;;;;;5028264;28;20128;-74
2022/10/11 05:58:25;;;;;;;14.05;2.80;;;7.00;99.90;;;;;;5024639;28;20410;-74
2022/10/11 06:00:51;;;;;;;12.98;2.80;;;6.60;99.90;;;;;;5032924;28;20559;-75
2022/10/11 06:03:19;;;;;;;31.88;4.55;;;7.00;99.90;;;;;;5032601;28;20045;-74
2022/10/11 06:05:45;;;;;;;12.25;2.45;;;6.90;99.90;;;;;;5032443;28;20046;-74
2022/10/11 06:08:12;;;;;;;17.77;4.03;;;6.60;99.90;;;;;;5032258;28;20057;-74
2022/10/11 06:10:38;;;;;;;12.95;3.45;;;6.60;99.90;;;;;;5015140;28;20049;-74
2022/10/11 06:13:05;;;;;;;31.60;4.20;;;6.80;99.90;;;;;;5029788;28;20420;-75
2022/10/11 06:15:31;;;;;;;13.52;3.17;;;6.70;99.90;;;;;;5030836;28;20084;-72
2022/10/11 06:17:58;;;;;;;19.73;4.68;;;6.70;99.90;;;;;;5029815;28;20073;-73
2022/10/11 06:20:24;;;;;;;24.65;4.35;;;6.70;99.90;;;;;;5031983;28;20404;-73
2022/10/11 06:22:50;;;;;;;12.88;2.75;;;7.20;99.90;;;;;;5029469;28;20041;-73
2022/10/11 06:25:15;;;;;;;25.88;5.38;;;6.80;99.90;;;;;;5030362;28;20545;-73
2022/10/11 06:27:41;;;;;;;17.45;7.32;;;6.80;99.90;;;;;;5032399;28;20042;-73
2022/10/11 06:30:07;;;;;;;13.20;5.00;;;6.90;99.90;;;;;;5032952;28;20648;-73
2022/10/11 06:32:33;;;;;;;16.88;3.67;;;6.90;99.90;;;;;;5031127;28;20049;-73
2022/10/11 06:34:58;;;;;;;22.33;5.43;;;6.90;99.90;;;;;;5027051;28;20183;-74
2022/10/11 06:37:24;;;;;;;12.32;4.07;;;6.90;99.90;;;;;;5011135;28;20049;-74
2022/10/11 06:39:50;;;;;;;17.75;4.03;;;7.20;99.90;;;;;;5016312;28;20488;-73
2022/10/11 06:42:15;;;;;;;11.52;3.35;;;7.10;99.90;;;;;;5016686;28;20050;-72
2022/10/11 06:44:41;;;;;;;32.50;5.78;;;7.40;99.90;;;;;;5025335;28;20124;-73
2022/10/11 06:47:08;;;;;;;17.80;4.03;;;7.20;99.90;;;;;;5028127;28;20491;-73
2022/10/11 06:49:34;;;;;;;27.60;4.10;;;7.50;99.90;;;;;;5025870;28;20056;-75
2022/10/11 06:51:59;;;;;;;7.00;3.42;;;7.40;99.90;;;;;;5029736;28;20043;-75
2022/10/11 06:54:25;;;;;;;16.13;3.20;;;7.70;99.90;;;;;;5015729;28;20045;-74
2022/10/11 06:56:51;;;;;;;8.68;2.50;;;7.40;99.90;;;;;;5029024;28;20045;-73
2022/10/11 06:59:17;;;;;;;10.88;3.33;;;7.60;99.90;;;;;;5030700;28;20515;-75
2022/10/11 07:01:42;;;;;;;19.55;4.35;;;7.80;99.90;;;;;;5031473;28;20077;-75
2022/10/11 07:04:08;;;;;;;15.75;3.90;;;8.10;99.90;;;;;;5032488;28;20136;-75
2022/10/11 07:06:39;;;;;;;12.45;3.03;;;8.20;99.90;;;;;;5021210;28;20045;-74
2022/10/11 07:09:06;;;;;;;20.38;2.97;;;8.00;99.90;;;;;;5035537;28;20431;-74
2022/10/11 07:11:32;;;;;;;9.18;2.40;;;8.30;99.90;;;;;;5015983;28;20603;-75
2022/10/11 07:14:00;;;;;;;9.43;2.90;;;8.50;99.90;;;;;;5005882;28;20162;-74
2022/10/11 07:16:26;;;;;;;7.53;2.47;;;8.70;99.90;;;;;;5007116;28;20041;-74
2022/10/11 07:18:55;;;;;;;34.70;5.05;;;8.80;99.90;;;;;;5014183;28;20124;-74
2022/10/11 07:21:21;;;;;;;17.42;4.65;;;8.80;99.90;;;;;;5029328;28;20041;-74
2022/10/11 07:23:47;;;;;;;9.55;2.30;;;8.60;99.90;;;;;;5031165;28;20056;-74
2022/10/11 07:26:13;;;;;;;14.57;3.67;;;8.80;99.90;;;;;;5012792;28;20029;-75
2022/10/11 07:28:39;;;;;;;9.55;2.78;;;8.90;99.90;;;;;;5020583;28;20152;-74
2022/10/11 07:31:07;;;;;;;19.30;4.38;;;8.90;99.90;;;;;;5008728;28;20209;-75
2022/10/11 07:33:33;;;;;;;15.38;2.35;;;9.20;99.90;;;;;;5019595;28;20033;-74
2022/10/11 07:35:59;;;;;;;7.72;2.92;;;9.30;99.90;;;;;;5023810;28;20404;-74
2022/10/11 07:38:25;;;;;;;17.25;3.05;;;9.10;99.90;;;;;;5042619;28;20096;-74
2022/10/11 07:40:51;;;;;;;6.85;2.25;;;9.10;99.90;;;;;;5039035;28;20045;-73
2022/10/11 07:43:16;;;;;;;13.50;2.10;;;9.40;99.90;;;;;;5019047;28;20046;-74
2022/10/11 07:45:46;;;;;;;12.68;3.97;;;9.30;99.90;;;;;;5028392;28;20049;-75
2022/10/11 07:48:12;;;;;;;15.52;3.53;;;9.10;99.90;;;;;;5029551;28;20037;-75
2022/10/11 07:50:37;;;;;;;9.98;2.75;;;9.20;99.90;;;;;;4997597;28;20100;-73
2022/10/11 07:53:03;;;;;;;9.85;2.33;;;9.30;99.90;;;;;;5030351;28;20124;-73
2022/10/11 07:55:32;;;;;;;11.65;2.30;;;9.40;99.90;;;;;;5008694;28;20091;-73
2022/10/11 07:57:58;;;;;;;24.08;4.03;;;9.70;99.90;;;;;;4996483;28;20128;-74
2022/10/11 08:00:24;;;;;;;16.60;2.80;;;9.90;99.90;;;;;;5019932;28;20117;-73
2022/10/11 08:02:49;;;;;;;19.80;2.05;;;10.00;99.90;;;;;;5024907;28;20472;-73
2022/10/11 08:05:15;;;;;;;19.05;3.20;;;10.10;99.90;;;;;;5024448;28;20053;-73
2022/10/11 08:07:41;;;;;;;13.07;2.92;;;10.30;99.90;;;;;;5031018;28;20037;-73
2022/10/11 08:10:07;;;;;;;13.65;3.35;;;10.10;99.90;;;;;;5031518;28;20053;-72
2022/10/11 08:12:33;;;;;;;13.32;3.13;;;10.50;99.90;;;;;;5023791;28;20455;-73
2022/10/11 08:14:59;;;;;;;15.07;2.25;;;10.50;99.90;;;;;;5026790;28;20128;-73
2022/10/11 08:17:25;;;;;;;7.85;1.63;;;10.70;99.90;;;;;;5024458;28;20382;-72
2022/10/11 08:19:51;;;;;;;7.78;1.63;;;10.90;99.90;;;;;;5026749;28;20045;-73
2022/10/11 08:22:17;;;;;;;16.73;2.53;;;11.10;99.90;;;;;;5013813;28;20057;-72
2022/10/11 08:24:42;;;;;;;11.77;2.38;;;11.00;99.90;;;;;;5022901;28;20049;-75
2022/10/11 08:27:08;;;;;;;9.63;2.35;;;11.00;99.90;;;;;;5020716;28;20050;-73
2022/10/11 08:29:34;;;;;;;12.07;2.40;;;11.20;99.90;;;;;;5017695;28;20125;-72
2022/10/11 08:31:59;;;;;;;13.40;2.20;;;11.30;99.90;;;;;;5025629;28;20112;-73
2022/10/11 08:34:26;;;;;;;13.93;4.70;;;11.30;99.90;;;;;;5026941;28;20041;-70
2022/10/11 08:36:51;;;;;;;11.70;2.50;;;11.40;99.90;;;;;;5029676;28;20049;-73
2022/10/11 08:39:17;;;;;;;18.70;3.17;;;11.50;99.90;;;;;;5020553;28;20141;-71
2022/10/11 08:41:51;;;;;;;6.90;2.33;;;11.30;99.90;;;;;;5026094;28;20041;-70
2022/10/11 08:44:44;;;;;;;13.50;3.17;;;11.60;99.90;;;;;;5029807;28;20088;-72
2022/10/11 08:47:22;;;;;;;17.63;2.47;;;11.60;99.90;;;;;;5028546;28;20107;-70
2022/10/11 08:49:49;;;;;;;12.02;2.70;;;11.80;99.90;;;;;;5029742;28;20419;-69
2022/10/11 08:52:27;;;;;;;12.13;2.58;;;12.00;99.90;;;;;;5029293;28;20048;-69
2022/10/11 08:55:15;;;;;;;12.93;3.30;;;12.10;99.90;;;;;;5029138;28;20404;-70
2022/10/11 08:57:52;;;;;;;11.00;3.05;;;12.10;99.90;;;;;;5027104;28;20451;-70
2022/10/11 09:00:19;;;;;;;14.18;2.78;;;12.20;99.90;;;;;;5030227;28;20049;-70
2022/10/11 09:03:25;;;;;;;16.65;3.72;;;12.30;99.90;;;;;;5014330;28;20045;-70
2022/10/11 09:06:18;;;;;;;10.18;3.30;;;12.20;99.90;;;;;;5010957;28;20050;-70
2022/10/11 09:09:13;;;;;;;8.57;1.58;;;12.10;99.90;;;;;;5029008;28;20038;-69
2022/10/11 09:12:10;;;;;;;10.45;2.03;;;12.00;99.90;;;;;;5033635;28;20056;-72
2022/10/11 09:14:39;;;;;;;15.20;3.17;;;12.00;99.90;;;;;;5023375;28;20129;-70
2022/10/11 09:17:32;;;;;;;14.95;2.83;;;12.10;99.90;;;;;;5029019;28;20463;-71
2022/10/11 09:19:58;;;;;;;13.90;3.35;;;12.40;99.90;;;;;;5028846;28;20045;-70
2022/10/11 09:22:42;;;;;;;14.60;2.40;;;12.40;99.90;;;;;;5017246;28;20053;-72
2022/10/11 09:25:20;;;;;;;8.25;3.35;;;12.40;99.90;;;;;;5009596;28;20049;-71
2022/10/11 09:27:56;;;;;;;13.68;2.58;;;12.60;99.90;;;;;;5009460;28;20054;-69
2022/10/11 09:30:22;;;;;;;13.93;2.33;;;12.80;99.90;;;;;;5026498;28;20049;-70
2022/10/11 09:33:01;;;;;;;18.98;4.25;;;12.70;99.90;;;;;;5030048;28;20040;-69
2022/10/11 09:35:31;;;;;;;12.80;2.53;;;13.00;99.90;;;;;;5031779;28;20076;-69
2022/10/11 09:38:04;;;;;;;14.05;3.53;;;12.90;99.90;;;;;;5031344;28;20042;-70
2022/10/11 09:41:07;;;;;;;9.80;1.67;;;13.10;99.90;;;;;;5025742;28;20048;-69
2022/10/11 09:43:33;;;;;;;14.23;3.30;;;13.30;99.90;;;;;;5009540;28;20496;-70
2022/10/11 09:45:59;;;;;;;8.50;1.58;;;13.30;99.90;;;;;;5008871;28;20049;-69
2022/10/11 09:48:37;;;;;;;15.48;2.85;;;13.30;99.90;;;;;;5023347;28;20029;-69
2022/10/11 09:51:12;;;;;;;9.82;2.85;;;13.50;99.90;;;;;;5029538;28;20728;-69
2022/10/11 09:53:49;;;;;;;13.13;1.92;;;13.60;99.90;;;;;;5019512;28;20056;-69
2022/10/11 09:56:15;;;;;;;14.68;3.05;;;13.60;99.90;;;;;;5029299;28;20068;-70
2022/10/11 09:58:41;;;;;;;11.50;2.60;;;13.70;99.90;;;;;;5030177;28;20388;-69
2022/10/11 10:01:20;;;;;;;10.23;2.47;;;13.70;99.90;;;;;;5029250;28;20029;-69
2022/10/11 10:03:46;;;;;;;8.55;1.40;;;13.90;99.90;;;;;;5029128;28;20045;-69
2022/10/11 10:06:27;;;;;;;10.20;2.58;;;14.00;99.90;;;;;;5028687;28;20052;-73
2022/10/11 10:08:54;;;;;;;9.95;2.80;;;14.00;99.90;;;;;;5028788;28;21457;-70
2022/10/11 10:11:20;;;;;;;13.65;2.95;;;14.10;99.90;;;;;;5028572;28;20128;-70
2022/10/11 10:13:49;;;;;;;8.77;1.92;;;14.00;99.90;;;;;;5024214;28;20092;-69
2022/10/11 10:16:26;;;;;;;15.23;1.70;;;14.10;99.90;;;;;;5018238;28;20467;-71
2022/10/11 10:19:02;;;;;;;10.32;1.55;;;14.20;99.90;;;;;;5027038;28;20034;-70
2022/10/11 10:21:44;;;;;;;14.32;2.38;;;14.20;99.90;;;;;;5026745;28;20045;-71
2022/10/11 10:24:28;;;;;;;17.98;2.85;;;14.20;99.90;;;;;;5029278;28;20056;-72
2022/10/11 10:27:15;;;;;;;8.18;2.63;;;14.40;99.90;;;;;;5029158;28;20065;-72
2022/10/11 10:29:43;;;;;;;7.95;1.58;;;14.30;99.90;;;;;;5027512;28;20057;-72
2022/10/11 10:32:22;;;;;;;20.05;2.33;;;14.40;99.90;;;;;;5028283;28;20073;-71
2022/10/11 10:35:20;;;;;;;5.63;2.28;;;14.50;99.90;;;;;;5012785;28;20046;-71
2022/10/11 10:37:58;;;;;;;7.03;1.33;;;14.70;99.90;;;;;;5028794;28;20148;-71
2022/10/11 10:40:39;;;;;;;11.48;1.70;;;14.60;99.90;;;;;;5027316;28;20052;-71
2022/10/11 10:43:04;;;;;;;10.57;3.75;;;14.80;99.90;;;;;;5011599;28;20052;-72
2022/10/11 10:45:54;;;;;;;11.98;2.38;;;15.00;99.90;;;;;;5030252;28;20038;-71
2022/10/11 10:48:50;;;;;;;6.93;0.90;;;14.80;99.90;;;;;;5031967;28;20056;-72
2022/10/11 10:51:21;;;;;;;7.20;2.08;;;14.80;99.90;;;;;;5019931;28;20357;-72
2022/10/11 10:53:55;;;;;;;6.78;1.60;;;14.80;99.90;;;;;;5031591;28;20049;-72
2022/10/11 10:56:30;;;;;;;8.38;2.20;;;14.90;99.90;;;;;;5025274;28;20034;-71
2022/10/11 10:59:14;;;;;;;10.23;2.15;;;14.90;99.90;;;;;;5033022;28;20052;-72
2022/10/11 11:01:52;;;;;;;6.72;1.30;;;14.90;99.90;;;;;;5031924;28;20065;-71
2022/10/11 11:04:26;;;;;;;11.43;2.65;;;15.00;99.90;;;;;;5032067;28;20049;-71
2022/10/11 11:07:18;;;;;;;7.93;1.30;;;14.90;99.90;;;;;;5031614;28;20104;-73
2022/10/11 11:09:52;;;;;;;9.20;2.70;;;14.90;99.90;;;;;;5022860;28;20050;-70
2022/10/11 11:12:44;;;;;;;8.30;2.17;;;15.10;99.90;;;;;;5030666;28;20049;-70
2022/10/11 11:15:44;;;;;;;8.73;2.08;;;15.20;99.90;;;;;;5025325;28;20045;-70
2022/10/11 11:18:24;;;;;;;11.20;3.10;;;15.20;99.90;;;;;;4991112;28;20069;-70
2022/10/11 11:21:19;;;;;;;7.20;1.13;;;15.10;99.90;;;;;;5018303;28;20367;-71
2022/10/11 11:24:06;;;;;;;13.38;2.83;;;15.00;99.90;;;;;;5030810;28;20045;-70
2022/10/11 11:26:57;;;;;;;8.75;2.45;;;15.10;99.90;;;;;;5030093;28;20044;-70
2022/10/11 11:29:52;;;;;;;9.48;2.25;;;15.10;99.90;;;;;;5031271;28;20084;-69
2022/10/11 11:32:21;;;;;;;7.43;1.55;;;15.00;99.90;;;;;;5001152;28;20423;-70
2022/10/11 11:35:01;;;;;;;10.80;1.80;;;15.20;99.90;;;;;;5031063;28;20048;-69
2022/10/11 11:37:30;;;;;;;13.52;2.58;;;15.10;99.90;;;;;;5012184;28;20049;-70
2022/10/11 11:40:33;;;;;;;7.38;1.23;;;15.10;99.90;;;;;;5031545;28;20045;-71
2022/10/11 11:43:07;;;;;;;7.05;1.30;;;15.30;99.90;;;;;;5027305;28;20059;-70
2022/10/11 11:45:51;;;;;;;8.70;1.40;;;15.30;99.90;;;;;;5029285;28;20125;-71
2022/10/11 11:48:23;;;;;;;12.68;2.75;;;15.30;99.90;;;;;;5021558;28;20041;-70
2022/10/11 11:50:59;;;;;;;7.80;1.58;;;15.40;99.90;;;;;;5026381;28;20073;-71
2022/10/11 11:53:43;;;;;;;12.88;3.28;;;15.70;99.90;;;;;;5027069;28;20041;-70
2022/10/11 11:56:28;;;;;;;7.95;2.65;;;15.60;99.90;;;;;;5025438;28;20104;-74
2022/10/11 11:59:08;;;;;;;13.30;2.78;;;15.60;99.90;;;;;;5030888;28;20516;-73
2022/10/11 12:01:45;;;;;;;6.35;1.48;;;15.60;99.90;;;;;;5030309;28;20125;-73
2022/10/11 12:04:36;;;;;;;7.25;1.77;;;15.60;99.90;;;;;;5027744;28;20065;-72
2022/10/11 12:07:06;;;;;;;15.00;2.47;;;15.70;99.90;;;;;;5030510;28;20037;-73
2022/10/11 12:09:33;;;;;;;12.65;2.08;;;15.70;99.90;;;;;;5029397;28;20057;-72
2022/10/11 12:12:07;;;;;;;10.65;1.70;;;15.70;99.90;;;;;;5025742;28;20048;-73
2022/10/11 12:14:33;;;;;;;8.95;1.63;;;15.90;99.90;;;;;;5009430;28;20058;-72
2022/10/11 12:17:15;;;;;;;10.80;2.33;;;15.80;99.90;;;;;;5009755;28;20042;-73
2022/10/11 12:20:02;;;;;;;7.70;1.75;;;15.80;99.90;;;;;;4992469;28;20133;-73
2022/10/11 12:22:28;;;;;;;5.30;1.20;;;15.80;99.90;;;;;;4990004;28;20502;-72
2022/10/11 12:24:58;;;;;;;6.55;2.03;;;15.90;99.90;;;;;;4999976;28;20041;-73
2022/10/11 12:27:42;;;;;;;5.72;1.60;;;15.90;99.90;;;;;;4968547;28;20650;-73
2022/10/11 12:30:49;;;;;;;9.35;1.52;;;15.70;99.90;;;;;;4991254;28;20413;-72
2022/10/11 12:33:59;;;;;;;12.55;1.40;;;15.20;99.90;;;;;;4990487;28;20424;-73
2022/10/11 12:36:28;;;;;;;7.03;1.10;;;14.90;99.90;;;;;;4992999;28;20046;-73
2022/10/11 12:39:19;;;;;;;7.75;1.90;;;14.80;99.90;;;;;;4997001;28;20047;-73
2022/10/11 12:41:52;;;;;;;4.85;1.02;;;14.60;99.90;;;;;;5030580;28;20440;-73
2022/10/11 12:44:17;;;;;;;13.55;2.85;;;14.60;99.90;;;;;;5029678;28;20128;-73
2022/10/11 12:46:49;;;;;;;13.05;2.90;;;14.60;99.90;;;;;;5024137;28;20093;-74
2022/10/11 12:49:15;;;;;;;5.25;1.30;;;14.60;99.90;;;;;;4972962;28;20625;-73
2022/10/11 12:51:52;;;;;;;9.07;1.55;;;15.00;99.90;;;;;;4985243;28;20133;-72
2022/10/11 12:54:53;;;;;;;10.57;2.38;;;15.40;99.90;;;;;;5006354;28;20516;-72
2022/10/11 12:57:50;;;;;;;6.47;1.30;;;15.60;99.90;;;;;;4955075;28;20050;-74
2022/10/11 13:00:24;;;;;;;8.68;2.22;;;16.00;99.90;;;;;;5004126;28;20041;-74
2022/10/11 13:02:50;;;;;;;5.32;1.42;;;16.20;99.90;;;;;;5009902;28;20061;-72
2022/10/11 13:05:22;;;;;;;6.55;1.10;;;16.20;99.90;;;;;;5008474;28;20037;-72
2022/10/11 13:07:48;;;;;;;4.82;1.50;;;16.30;99.90;;;;;;4972786;28;20077;-73